This is the latest recevied weather packets stored in our database for station/object KF0KFL-13. If no packets are shown the sender has not sent any weather packets the latest 10 day(s).
| Time | Temp. | Humidity | Pressure | Rain* | Wind** | Luminosity | Snow |
|---|---|---|---|---|---|---|---|
| 1777468797 | 5.56° C | 61% | 1018.3 hPa | 0 mm | - | 37 W/m² | - |
| 1777467596 | 5° C | 65% | 1018.6 hPa | 0 mm | - | 35 W/m² | - |
| 1777466367 | 4.44° C | 66% | 1018.3 hPa | 0 mm | - | 29 W/m² | - |
| 1777465136 | 3.89° C | 68% | 1018.2 hPa | 0 mm | - | 24 W/m² | - |
| 1777463939 | 3.33° C | 69% | 1017.8 hPa | 0 mm | - | 20 W/m² | - |
| 1777463906 | 3.33° C | 69% | 1017.8 hPa | 0 mm | - | 20 W/m² | - |
| 1777462676 | 3.33° C | 70% | 1017.6 hPa | 0 mm | - | 12 W/m² | - |
| 1777461476 | 3.33° C | 69% | 1017.7 hPa | 0 mm | - | 4 W/m² | - |
| 1777460246 | 3.89° C | 67% | 1017.5 hPa | 0 mm | - | 0 W/m² | - |
| 1777459016 | 3.89° C | 66% | 1017.6 hPa | 0 mm | - | 0 W/m² | - |
| 1777457786 | 4.44° C | 65% | 1016.9 hPa | 0 mm | - | 0 W/m² | - |
| 1777456556 | 4.44° C | 63% | 1017 hPa | 0 mm | - | 0 W/m² | - |
| 1777455356 | 5° C | 62% | 1016.8 hPa | 0 mm | - | 0 W/m² | - |
| 1777454156 | 5° C | 60% | 1016.7 hPa | 0 mm | - | 0 W/m² | - |
| 1777452926 | 5° C | 59% | 1016.4 hPa | 0 mm | - | 0 W/m² | - |
| 1777451726 | 5.56° C | 59% | 1016.7 hPa | 0 mm | - | 0 W/m² | - |
| 1777450496 | 5.56° C | 58% | 1016.3 hPa | 0 mm | - | 0 W/m² | - |
| 1777449346 | 5.56° C | 57% | 1016.4 hPa | 0 mm | - | 0 W/m² | - |
| 1777449266 | 5.56° C | 57% | 1016.4 hPa | 0 mm | - | 0 W/m² | - |
| 1777448036 | 6.11° C | 56% | 1016.4 hPa | 0 mm | - | 0 W/m² | - |
| 1777446806 | 6.11° C | 55% | 1016.3 hPa | 0 mm | - | 0 W/m² | - |
| 1777445576 | 6.11° C | 55% | 1016.5 hPa | 0 mm | - | 0 W/m² | - |
| 1777444346 | 6.67° C | 54% | 1016.6 hPa | 0 mm | - | 0 W/m² | - |
| 1777443116 | 6.67° C | 54% | 1016.6 hPa | 0 mm | - | 0 W/m² | - |
| 1777441916 | 6.67° C | 55% | 1016.5 hPa | 0 mm | - | 0 W/m² | - |
* Rain latest hour (hover to see other rain measurements)
** Current wind speed in m/s (hover to see current wind gust speed)